sensor_id;sensor_type;location;lat;lon;timestamp;temperature;humidity
52565;DHT22;38460;53.106;7.004;2023-07-20T00:01:13;15.30;99.90
52565;DHT22;38460;53.106;7.004;2023-07-20T00:03:39;15.30;99.90
52565;DHT22;38460;53.106;7.004;2023-07-20T00:06:04;15.20;99.90
52565;DHT22;38460;53.106;7.004;2023-07-20T00:08:30;15.20;99.90
52565;DHT22;38460;53.106;7.004;2023-07-20T00:10:56;15.20;99.90
52565;DHT22;38460;53.106;7.004;2023-07-20T00:13:22;15.10;99.90
52565;DHT22;38460;53.106;7.004;2023-07-20T00:15:48;15.10;99.90
52565;DHT22;38460;53.106;7.004;2023-07-20T00:18:14;15.10;99.90
52565;DHT22;38460;53.106;7.004;2023-07-20T00:20:40;15.10;99.90
52565;DHT22;38460;53.106;7.004;2023-07-20T00:23:06;15.10;99.90
52565;DHT22;38460;53.106;7.004;2023-07-20T00:25:32;15.10;99.90
52565;DHT22;38460;53.106;7.004;2023-07-20T00:27:59;15.00;99.90
52565;DHT22;38460;53.106;7.004;2023-07-20T00:30:24;15.00;99.90
52565;DHT22;38460;53.106;7.004;2023-07-20T00:32:50;15.00;99.90
52565;DHT22;38460;53.106;7.004;2023-07-20T00:35:16;15.00;99.90
52565;DHT22;38460;53.106;7.004;2023-07-20T00:37:42;15.00;99.90
52565;DHT22;38460;53.106;7.004;2023-07-20T00:40:08;15.00;99.90
52565;DHT22;38460;53.106;7.004;2023-07-20T00:42:34;15.00;99.90
52565;DHT22;38460;53.106;7.004;2023-07-20T00:44:59;15.00;99.90
52565;DHT22;38460;53.106;7.004;2023-07-20T00:47:27;15.00;99.90
52565;DHT22;38460;53.106;7.004;2023-07-20T00:49:53;15.00;99.90
52565;DHT22;38460;53.106;7.004;2023-07-20T00:52:21;14.90;99.90
52565;DHT22;38460;53.106;7.004;2023-07-20T00:54:47;14.90;99.90
52565;DHT22;38460;53.106;7.004;2023-07-20T00:57:17;14.90;99.90
52565;DHT22;38460;53.106;7.004;2023-07-20T00:59:44;14.90;99.90
52565;DHT22;38460;53.106;7.004;2023-07-20T01:02:10;14.90;99.90
52565;DHT22;38460;53.106;7.004;2023-07-20T01:04:36;14.90;99.90
52565;DHT22;38460;53.106;7.004;2023-07-20T01:07:25;14.90;99.90
52565;DHT22;38460;53.106;7.004;2023-07-20T01:10:02;14.90;99.90
52565;DHT22;38460;53.106;7.004;2023-07-20T01:12:51;14.90;99.90
52565;DHT22;38460;53.106;7.004;2023-07-20T01:15:17;14.90;99.90
52565;DHT22;38460;53.106;7.004;2023-07-20T01:17:43;14.90;99.90
52565;DHT22;38460;53.106;7.004;2023-07-20T01:20:13;14.90;99.90
52565;DHT22;38460;53.106;7.004;2023-07-20T01:33:24;14.80;99.90
52565;DHT22;38460;53.106;7.004;2023-07-20T01:36:01;14.80;99.90
52565;DHT22;38460;53.106;7.004;2023-07-20T01:38:27;14.80;99.90
52565;DHT22;38460;53.106;7.004;2023-07-20T01:40:53;14.80;99.90
52565;DHT22;38460;53.106;7.004;2023-07-20T01:43:20;14.80;99.90
52565;DHT22;38460;53.106;7.004;2023-07-20T01:45:45;14.70;99.90
52565;DHT22;38460;53.106;7.004;2023-07-20T01:48:11;14.70;99.90
52565;DHT22;38460;53.106;7.004;2023-07-20T01:50:37;14.70;99.90
52565;DHT22;38460;53.106;7.004;2023-07-20T01:53:02;14.70;99.90
52565;DHT22;38460;53.106;7.004;2023-07-20T01:55:28;14.70;99.90
52565;DHT22;38460;53.106;7.004;2023-07-20T01:57:55;14.60;99.90
52565;DHT22;38460;53.106;7.004;2023-07-20T02:00:21;14.60;99.90
52565;DHT22;38460;53.106;7.004;2023-07-20T02:02:50;14.60;99.90
52565;DHT22;38460;53.106;7.004;2023-07-20T02:05:16;14.60;99.90
52565;DHT22;38460;53.106;7.004;2023-07-20T02:07:42;14.60;99.90
52565;DHT22;38460;53.106;7.004;2023-07-20T02:10:08;14.50;99.90
52565;DHT22;38460;53.106;7.004;2023-07-20T02:12:34;14.50;99.90
52565;DHT22;38460;53.106;7.004;2023-07-20T02:15:00;14.50;99.90
52565;DHT22;38460;53.106;7.004;2023-07-20T02:17:26;14.40;99.90
52565;DHT22;38460;53.106;7.004;2023-07-20T02:19:55;14.40;99.90
52565;DHT22;38460;53.106;7.004;2023-07-20T02:22:21;14.30;99.90
52565;DHT22;38460;53.106;7.004;2023-07-20T02:24:47;14.30;99.90
52565;DHT22;38460;53.106;7.004;2023-07-20T02:27:13;14.30;99.90
52565;DHT22;38460;53.106;7.004;2023-07-20T02:29:41;14.20;99.90
52565;DHT22;38460;53.106;7.004;2023-07-20T02:32:07;14.20;99.90
52565;DHT22;38460;53.106;7.004;2023-07-20T02:34:33;14.10;99.90
52565;DHT22;38460;53.106;7.004;2023-07-20T02:37:00;14.10;99.90
52565;DHT22;38460;53.106;7.004;2023-07-20T02:39:29;14.10;99.90
52565;DHT22;38460;53.106;7.004;2023-07-20T02:41:56;14.00;99.90
52565;DHT22;38460;53.106;7.004;2023-07-20T02:44:21;14.00;99.90
52565;DHT22;38460;53.106;7.004;2023-07-20T02:46:47;14.00;99.90
52565;DHT22;38460;53.106;7.004;2023-07-20T02:49:15;13.90;99.90
52565;DHT22;38460;53.106;7.004;2023-07-20T02:51:41;13.90;99.90
52565;DHT22;38460;53.106;7.004;2023-07-20T02:54:07;13.90;99.90
52565;DHT22;38460;53.106;7.004;2023-07-20T02:56:33;13.80;99.90
52565;DHT22;38460;53.106;7.004;2023-07-20T02:59:00;13.80;99.90
52565;DHT22;38460;53.106;7.004;2023-07-20T03:01:26;13.80;99.90
52565;DHT22;38460;53.106;7.004;2023-07-20T03:03:55;13.70;99.90
52565;DHT22;38460;53.106;7.004;2023-07-20T03:06:21;13.70;99.90
52565;DHT22;38460;53.106;7.004;2023-07-20T03:08:47;13.70;99.90
52565;DHT22;38460;53.106;7.004;2023-07-20T03:11:17;13.60;99.90
52565;DHT22;38460;53.106;7.004;2023-07-20T03:13:43;13.60;99.90
52565;DHT22;38460;53.106;7.004;2023-07-20T03:16:11;13.60;99.90
52565;DHT22;38460;53.106;7.004;2023-07-20T03:18:40;13.60;99.90
52565;DHT22;38460;53.106;7.004;2023-07-20T03:21:08;13.50;99.90
52565;DHT22;38460;53.106;7.004;2023-07-20T03:23:34;13.50;99.90
52565;DHT22;38460;53.106;7.004;2023-07-20T03:26:00;13.50;99.90
52565;DHT22;38460;53.106;7.004;2023-07-20T03:28:26;13.40;99.90
52565;DHT22;38460;53.106;7.004;2023-07-20T03:30:58;13.40;99.90
52565;DHT22;38460;53.106;7.004;2023-07-20T03:33:28;13.40;99.90
52565;DHT22;38460;53.106;7.004;2023-07-20T03:35:55;13.30;99.90
52565;DHT22;38460;53.106;7.004;2023-07-20T03:38:22;13.30;99.90
52565;DHT22;38460;53.106;7.004;2023-07-20T03:40:54;13.30;99.90
52565;DHT22;38460;53.106;7.004;2023-07-20T03:43:22;13.30;99.90
52565;DHT22;38460;53.106;7.004;2023-07-20T03:45:48;13.20;99.90
52565;DHT22;38460;53.106;7.004;2023-07-20T03:48:19;13.20;99.90
52565;DHT22;38460;53.106;7.004;2023-07-20T03:50:45;13.20;99.90
52565;DHT22;38460;53.106;7.004;2023-07-20T03:53:12;13.20;99.90
52565;DHT22;38460;53.106;7.004;2023-07-20T03:55:38;13.20;99.90
52565;DHT22;38460;53.106;7.004;2023-07-20T03:58:06;13.10;99.90
52565;DHT22;38460;53.106;7.004;2023-07-20T04:00:32;13.10;99.90
52565;DHT22;38460;53.106;7.004;2023-07-20T04:02:58;13.10;99.90
52565;DHT22;38460;53.106;7.004;2023-07-20T04:05:24;13.10;99.90
52565;DHT22;38460;53.106;7.004;2023-07-20T04:07:51;13.10;99.90
52565;DHT22;38460;53.106;7.004;2023-07-20T04:10:17;13.10;99.90
52565;DHT22;38460;53.106;7.004;2023-07-20T04:12:44;13.10;99.90
52565;DHT22;38460;53.106;7.004;2023-07-20T04:15:10;13.00;99.90
52565;DHT22;38460;53.106;7.004;2023-07-20T04:17:36;13.00;99.90
52565;DHT22;38460;53.106;7.004;2023-07-20T04:20:02;13.00;99.90
52565;DHT22;38460;53.106;7.004;2023-07-20T04:22:28;13.00;99.90
52565;DHT22;38460;53.106;7.004;2023-07-20T04:24:54;12.90;99.90
52565;DHT22;38460;53.106;7.004;2023-07-20T04:27:20;12.90;99.90
52565;DHT22;38460;53.106;7.004;2023-07-20T04:29:45;12.90;99.90
52565;DHT22;38460;53.106;7.004;2023-07-20T04:32:11;12.90;99.90
52565;DHT22;38460;53.106;7.004;2023-07-20T04:34:37;12.90;99.90
52565;DHT22;38460;53.106;7.004;2023-07-20T04:37:06;12.90;99.90
52565;DHT22;38460;53.106;7.004;2023-07-20T04:39:31;12.90;99.90
52565;DHT22;38460;53.106;7.004;2023-07-20T04:41:57;12.90;99.90
52565;DHT22;38460;53.106;7.004;2023-07-20T04:44:23;12.90;99.90
52565;DHT22;38460;53.106;7.004;2023-07-20T04:46:49;12.90;99.90
52565;DHT22;38460;53.106;7.004;2023-07-20T04:49:15;12.90;99.90
52565;DHT22;38460;53.106;7.004;2023-07-20T04:51:41;12.90;99.90
52565;DHT22;38460;53.106;7.004;2023-07-20T04:54:07;12.90;99.90
52565;DHT22;38460;53.106;7.004;2023-07-20T04:56:33;12.90;99.90
52565;DHT22;38460;53.106;7.004;2023-07-20T04:58:58;12.90;99.90
52565;DHT22;38460;53.106;7.004;2023-07-20T05:01:25;12.90;99.90
52565;DHT22;38460;53.106;7.004;2023-07-20T05:03:52;12.90;99.90
52565;DHT22;38460;53.106;7.004;2023-07-20T05:06:18;12.90;99.90
52565;DHT22;38460;53.106;7.004;2023-07-20T05:08:44;12.90;99.90
52565;DHT22;38460;53.106;7.004;2023-07-20T05:11:10;12.90;99.90
52565;DHT22;38460;53.106;7.004;2023-07-20T05:13:36;13.00;99.90
52565;DHT22;38460;53.106;7.004;2023-07-20T05:16:02;13.00;99.90
52565;DHT22;38460;53.106;7.004;2023-07-20T05:18:27;13.00;99.90
52565;DHT22;38460;53.106;7.004;2023-07-20T05:20:53;13.00;99.90
52565;DHT22;38460;53.106;7.004;2023-07-20T05:23:20;13.10;99.90
52565;DHT22;38460;53.106;7.004;2023-07-20T05:25:46;13.10;99.90
52565;DHT22;38460;53.106;7.004;2023-07-20T05:28:12;13.20;99.90
52565;DHT22;38460;53.106;7.004;2023-07-20T05:30:38;13.20;99.90
52565;DHT22;38460;53.106;7.004;2023-07-20T05:33:05;13.20;99.90
52565;DHT22;38460;53.106;7.004;2023-07-20T05:35:31;13.30;99.90
52565;DHT22;38460;53.106;7.004;2023-07-20T05:37:56;13.30;99.90
52565;DHT22;38460;53.106;7.004;2023-07-20T05:40:22;13.40;99.90
52565;DHT22;38460;53.106;7.004;2023-07-20T05:42:48;13.40;99.90
52565;DHT22;38460;53.106;7.004;2023-07-20T05:45:17;13.40;99.90
52565;DHT22;38460;53.106;7.004;2023-07-20T05:47:43;13.50;99.90
52565;DHT22;38460;53.106;7.004;2023-07-20T05:50:10;13.50;99.90
52565;DHT22;38460;53.106;7.004;2023-07-20T05:52:36;13.60;99.90
52565;DHT22;38460;53.106;7.004;2023-07-20T05:55:05;13.60;99.90
52565;DHT22;38460;53.106;7.004;2023-07-20T05:57:31;13.70;99.90
52565;DHT22;38460;53.106;7.004;2023-07-20T05:59:56;13.80;99.90
52565;DHT22;38460;53.106;7.004;2023-07-20T06:02:22;13.80;99.90
52565;DHT22;38460;53.106;7.004;2023-07-20T06:04:48;13.90;99.90
52565;DHT22;38460;53.106;7.004;2023-07-20T06:07:14;14.00;99.90
52565;DHT22;38460;53.106;7.004;2023-07-20T06:09:39;14.00;99.90
52565;DHT22;38460;53.106;7.004;2023-07-20T06:12:06;14.10;99.90
52565;DHT22;38460;53.106;7.004;2023-07-20T06:14:32;14.10;99.90
52565;DHT22;38460;53.106;7.004;2023-07-20T06:16:57;14.20;99.90
52565;DHT22;38460;53.106;7.004;2023-07-20T06:19:23;14.30;99.90
52565;DHT22;38460;53.106;7.004;2023-07-20T06:21:49;14.30;99.90
52565;DHT22;38460;53.106;7.004;2023-07-20T06:24:16;14.40;99.90
52565;DHT22;38460;53.106;7.004;2023-07-20T06:26:42;14.40;99.90
52565;DHT22;38460;53.106;7.004;2023-07-20T06:29:08;14.50;99.90
52565;DHT22;38460;53.106;7.004;2023-07-20T06:31:35;14.60;99.90
52565;DHT22;38460;53.106;7.004;2023-07-20T06:34:01;14.60;99.90
52565;DHT22;38460;53.106;7.004;2023-07-20T06:36:28;14.70;99.90
52565;DHT22;38460;53.106;7.004;2023-07-20T06:38:54;14.70;99.90
52565;DHT22;38460;53.106;7.004;2023-07-20T06:41:19;14.80;99.90
52565;DHT22;38460;53.106;7.004;2023-07-20T06:43:45;14.90;99.90
52565;DHT22;38460;53.106;7.004;2023-07-20T06:46:11;14.90;99.90
52565;DHT22;38460;53.106;7.004;2023-07-20T06:48:37;14.90;99.90
52565;DHT22;38460;53.106;7.004;2023-07-20T06:51:03;15.00;99.90
52565;DHT22;38460;53.106;7.004;2023-07-20T06:53:33;15.10;99.90
52565;DHT22;38460;53.106;7.004;2023-07-20T06:55:58;15.20;99.90
52565;DHT22;38460;53.106;7.004;2023-07-20T06:58:24;15.20;99.90
52565;DHT22;38460;53.106;7.004;2023-07-20T07:00:50;15.30;99.90
52565;DHT22;38460;53.106;7.004;2023-07-20T07:03:16;15.40;99.90
52565;DHT22;38460;53.106;7.004;2023-07-20T07:05:43;15.40;99.90
52565;DHT22;38460;53.106;7.004;2023-07-20T07:08:11;15.50;99.90
52565;DHT22;38460;53.106;7.004;2023-07-20T07:10:37;15.60;99.90
52565;DHT22;38460;53.106;7.004;2023-07-20T07:13:03;15.60;99.90
52565;DHT22;38460;53.106;7.004;2023-07-20T07:15:29;15.70;99.90
52565;DHT22;38460;53.106;7.004;2023-07-20T07:17:55;15.70;99.90
52565;DHT22;38460;53.106;7.004;2023-07-20T07:20:21;15.80;99.90
52565;DHT22;38460;53.106;7.004;2023-07-20T07:22:47;15.80;99.90
52565;DHT22;38460;53.106;7.004;2023-07-20T07:25:13;15.90;99.90
52565;DHT22;38460;53.106;7.004;2023-07-20T07:27:39;15.90;99.90
52565;DHT22;38460;53.106;7.004;2023-07-20T07:30:06;16.00;99.90
52565;DHT22;38460;53.106;7.004;2023-07-20T07:32:32;16.10;99.90
52565;DHT22;38460;53.106;7.004;2023-07-20T07:34:58;16.10;99.90
52565;DHT22;38460;53.106;7.004;2023-07-20T07:37:26;16.10;99.90
52565;DHT22;38460;53.106;7.004;2023-07-20T07:39:51;16.20;99.90
52565;DHT22;38460;53.106;7.004;2023-07-20T07:42:17;16.20;99.90
52565;DHT22;38460;53.106;7.004;2023-07-20T07:44:44;16.30;99.90
52565;DHT22;38460;53.106;7.004;2023-07-20T07:47:10;16.30;99.90
52565;DHT22;38460;53.106;7.004;2023-07-20T07:49:36;16.40;99.90
52565;DHT22;38460;53.106;7.004;2023-07-20T07:52:01;16.50;99.90
52565;DHT22;38460;53.106;7.004;2023-07-20T07:54:28;16.60;99.90
52565;DHT22;38460;53.106;7.004;2023-07-20T07:56:54;16.60;99.90
52565;DHT22;38460;53.106;7.004;2023-07-20T07:59:20;16.60;99.90
52565;DHT22;38460;53.106;7.004;2023-07-20T08:01:46;16.60;99.90
52565;DHT22;38460;53.106;7.004;2023-07-20T08:04:11;16.60;99.90
52565;DHT22;38460;53.106;7.004;2023-07-20T08:06:38;16.60;99.90
52565;DHT22;38460;53.106;7.004;2023-07-20T08:09:04;16.70;99.90
52565;DHT22;38460;53.106;7.004;2023-07-20T08:11:30;16.80;99.90
52565;DHT22;38460;53.106;7.004;2023-07-20T08:13:59;16.90;99.90
52565;DHT22;38460;53.106;7.004;2023-07-20T08:16:25;17.00;99.90
52565;DHT22;38460;53.106;7.004;2023-07-20T08:18:51;17.10;99.90
52565;DHT22;38460;53.106;7.004;2023-07-20T08:21:17;17.10;99.90
52565;DHT22;38460;53.106;7.004;2023-07-20T08:23:42;17.10;99.90
52565;DHT22;38460;53.106;7.004;2023-07-20T08:26:08;17.10;99.90
52565;DHT22;38460;53.106;7.004;2023-07-20T08:28:34;17.10;99.90
52565;DHT22;38460;53.106;7.004;2023-07-20T08:31:00;17.10;99.90
52565;DHT22;38460;53.106;7.004;2023-07-20T08:33:26;17.20;99.90
52565;DHT22;38460;53.106;7.004;2023-07-20T08:35:55;17.20;99.90
52565;DHT22;38460;53.106;7.004;2023-07-20T08:38:22;17.30;99.90
52565;DHT22;38460;53.106;7.004;2023-07-20T08:40:47;17.30;99.90
52565;DHT22;38460;53.106;7.004;2023-07-20T08:43:14;17.50;99.90
52565;DHT22;38460;53.106;7.004;2023-07-20T08:45:44;17.50;99.90
52565;DHT22;38460;53.106;7.004;2023-07-20T08:48:12;17.60;99.90
52565;DHT22;38460;53.106;7.004;2023-07-20T08:50:38;17.80;99.90
52565;DHT22;38460;53.106;7.004;2023-07-20T08:53:04;17.90;99.90
52565;DHT22;38460;53.106;7.004;2023-07-20T08:55:31;17.80;99.90
52565;DHT22;38460;53.106;7.004;2023-07-20T08:57:58;17.90;99.90
52565;DHT22;38460;53.106;7.004;2023-07-20T09:00:25;17.90;99.90
52565;DHT22;38460;53.106;7.004;2023-07-20T09:02:53;17.80;99.90
52565;DHT22;38460;53.106;7.004;2023-07-20T09:05:20;17.80;99.90
52565;DHT22;38460;53.106;7.004;2023-07-20T09:07:46;17.80;99.90
52565;DHT22;38460;53.106;7.004;2023-07-20T09:10:13;17.90;99.90
52565;DHT22;38460;53.106;7.004;2023-07-20T09:12:41;17.90;99.90
52565;DHT22;38460;53.106;7.004;2023-07-20T09:15:08;18.10;99.90
52565;DHT22;38460;53.106;7.004;2023-07-20T09:17:34;18.00;99.90
52565;DHT22;38460;53.106;7.004;2023-07-20T09:20:04;18.00;99.90
52565;DHT22;38460;53.106;7.004;2023-07-20T09:22:34;18.10;99.90
52565;DHT22;38460;53.106;7.004;2023-07-20T09:25:00;18.30;99.90
52565;DHT22;38460;53.106;7.004;2023-07-20T09:27:36;18.40;99.90
52565;DHT22;38460;53.106;7.004;2023-07-20T09:30:03;18.50;99.90
52565;DHT22;38460;53.106;7.004;2023-07-20T09:32:29;18.50;99.90
52565;DHT22;38460;53.106;7.004;2023-07-20T09:34:55;18.50;99.90
52565;DHT22;38460;53.106;7.004;2023-07-20T09:37:21;18.50;99.90
52565;DHT22;38460;53.106;7.004;2023-07-20T09:39:48;18.50;99.90
52565;DHT22;38460;53.106;7.004;2023-07-20T09:42:15;18.40;99.90
52565;DHT22;38460;53.106;7.004;2023-07-20T09:44:43;18.40;99.90
52565;DHT22;38460;53.106;7.004;2023-07-20T09:47:09;18.30;99.90
52565;DHT22;38460;53.106;7.004;2023-07-20T09:49:41;18.40;99.90
52565;DHT22;38460;53.106;7.004;2023-07-20T09:52:08;18.50;99.90
52565;DHT22;38460;53.106;7.004;2023-07-20T09:54:38;18.60;99.90
52565;DHT22;38460;53.106;7.004;2023-07-20T09:57:06;18.70;99.90
52565;DHT22;38460;53.106;7.004;2023-07-20T09:59:33;18.70;99.90
52565;DHT22;38460;53.106;7.004;2023-07-20T10:02:01;18.70;99.90
52565;DHT22;38460;53.106;7.004;2023-07-20T10:04:30;18.70;99.90
52565;DHT22;38460;53.106;7.004;2023-07-20T10:06:59;18.70;99.90
52565;DHT22;38460;53.106;7.004;2023-07-20T10:09:29;18.60;99.90
52565;DHT22;38460;53.106;7.004;2023-07-20T10:11:56;18.70;99.90
52565;DHT22;38460;53.106;7.004;2023-07-20T10:14:24;18.80;99.90
52565;DHT22;38460;53.106;7.004;2023-07-20T10:16:57;18.90;99.90
52565;DHT22;38460;53.106;7.004;2023-07-20T10:19:43;19.00;99.90
52565;DHT22;38460;53.106;7.004;2023-07-20T10:22:20;19.00;99.90
52565;DHT22;38460;53.106;7.004;2023-07-20T10:24:48;18.90;99.90
52565;DHT22;38460;53.106;7.004;2023-07-20T10:27:15;18.90;99.90
52565;DHT22;38460;53.106;7.004;2023-07-20T10:29:42;18.90;99.90
52565;DHT22;38460;53.106;7.004;2023-07-20T10:32:08;19.00;99.90
52565;DHT22;38460;53.106;7.004;2023-07-20T10:34:35;19.00;99.90
52565;DHT22;38460;53.106;7.004;2023-07-20T10:37:01;19.00;99.90
52565;DHT22;38460;53.106;7.004;2023-07-20T10:39:28;19.20;99.90
52565;DHT22;38460;53.106;7.004;2023-07-20T10:42:05;19.20;99.90
52565;DHT22;38460;53.106;7.004;2023-07-20T10:44:32;19.30;99.90
52565;DHT22;38460;53.106;7.004;2023-07-20T10:47:02;19.40;99.90
52565;DHT22;38460;53.106;7.004;2023-07-20T10:49:28;19.30;99.90
52565;DHT22;38460;53.106;7.004;2023-07-20T10:51:59;19.40;99.90
52565;DHT22;38460;53.106;7.004;2023-07-20T10:56:55;19.70;99.70
52565;DHT22;38460;53.106;7.004;2023-07-20T11:01:59;19.80;99.80
52565;DHT22;38460;53.106;7.004;2023-07-20T11:04:42;19.70;99.90
52565;DHT22;38460;53.106;7.004;2023-07-20T11:07:09;19.60;99.70
52565;DHT22;38460;53.106;7.004;2023-07-20T11:09:38;19.50;99.90
52565;DHT22;38460;53.106;7.004;2023-07-20T11:12:14;19.50;99.70
52565;DHT22;38460;53.106;7.004;2023-07-20T11:14:41;19.60;99.90
52565;DHT22;38460;53.106;7.004;2023-07-20T11:17:15;19.60;99.90
52565;DHT22;38460;53.106;7.004;2023-07-20T11:19:41;19.70;99.90
52565;DHT22;38460;53.106;7.004;2023-07-20T11:22:07;19.80;99.90
52565;DHT22;38460;53.106;7.004;2023-07-20T11:24:36;19.90;98.60
52565;DHT22;38460;53.106;7.004;2023-07-20T11:27:03;20.00;98.20
52565;DHT22;38460;53.106;7.004;2023-07-20T11:29:29;20.10;98.30
52565;DHT22;38460;53.106;7.004;2023-07-20T11:31:56;20.20;97.70
52565;DHT22;38460;53.106;7.004;2023-07-20T11:34:24;20.10;97.50
52565;DHT22;38460;53.106;7.004;2023-07-20T11:36:51;20.20;97.70
52565;DHT22;38460;53.106;7.004;2023-07-20T11:39:21;20.20;97.80
52565;DHT22;38460;53.106;7.004;2023-07-20T11:41:49;20.00;97.50
52565;DHT22;38460;53.106;7.004;2023-07-20T11:44:20;19.90;97.80
52565;DHT22;38460;53.106;7.004;2023-07-20T11:46:46;20.00;97.50
52565;DHT22;38460;53.106;7.004;2023-07-20T11:49:12;20.20;98.30
52565;DHT22;38460;53.106;7.004;2023-07-20T11:51:39;20.40;98.10
52565;DHT22;38460;53.106;7.004;2023-07-20T11:54:07;20.40;97.70
52565;DHT22;38460;53.106;7.004;2023-07-20T11:56:33;20.50;97.80
52565;DHT22;38460;53.106;7.004;2023-07-20T11:58:59;20.60;97.70
52565;DHT22;38460;53.106;7.004;2023-07-20T12:01:27;20.50;98.00
52565;DHT22;38460;53.106;7.004;2023-07-20T12:04:02;20.40;97.80
52565;DHT22;38460;53.106;7.004;2023-07-20T12:06:29;20.40;97.80
52565;DHT22;38460;53.106;7.004;2023-07-20T12:08:56;20.30;97.90
52565;DHT22;38460;53.106;7.004;2023-07-20T12:11:38;20.20;98.00
52565;DHT22;38460;53.106;7.004;2023-07-20T12:14:07;20.10;96.30
52565;DHT22;38460;53.106;7.004;2023-07-20T12:16:34;20.20;98.10
52565;DHT22;38460;53.106;7.004;2023-07-20T12:19:08;20.30;98.20
52565;DHT22;38460;53.106;7.004;2023-07-20T12:21:36;20.60;98.80
52565;DHT22;38460;53.106;7.004;2023-07-20T12:24:03;20.80;97.90
52565;DHT22;38460;53.106;7.004;2023-07-20T12:26:30;21.00;97.20
52565;DHT22;38460;53.106;7.004;2023-07-20T12:28:56;21.10;96.90
52565;DHT22;38460;53.106;7.004;2023-07-20T12:31:22;21.10;96.90
52565;DHT22;38460;53.106;7.004;2023-07-20T12:33:53;21.00;96.80
52565;DHT22;38460;53.106;7.004;2023-07-20T12:36:21;20.90;96.30
52565;DHT22;38460;53.106;7.004;2023-07-20T12:38:46;20.80;96.90
52565;DHT22;38460;53.106;7.004;2023-07-20T12:41:13;20.70;96.90
52565;DHT22;38460;53.106;7.004;2023-07-20T12:43:42;20.60;96.80
52565;DHT22;38460;53.106;7.004;2023-07-20T12:46:09;20.70;97.10
52565;DHT22;38460;53.106;7.004;2023-07-20T12:48:36;20.70;97.10
52565;DHT22;38460;53.106;7.004;2023-07-20T12:51:06;20.90;97.40
52565;DHT22;38460;53.106;7.004;2023-07-20T12:53:33;21.00;96.90
52565;DHT22;38460;53.106;7.004;2023-07-20T12:55:59;21.20;97.00
52565;DHT22;38460;53.106;7.004;2023-07-20T12:58:26;21.20;96.50
52565;DHT22;38460;53.106;7.004;2023-07-20T13:00:51;21.20;96.20
52565;DHT22;38460;53.106;7.004;2023-07-20T13:03:17;21.00;95.90
52565;DHT22;38460;53.106;7.004;2023-07-20T13:05:46;20.80;96.00
52565;DHT22;38460;53.106;7.004;2023-07-20T13:08:12;20.70;96.30
52565;DHT22;38460;53.106;7.004;2023-07-20T13:10:38;20.60;96.60
52565;DHT22;38460;53.106;7.004;2023-07-20T13:13:04;20.50;96.80
52565;DHT22;38460;53.106;7.004;2023-07-20T13:15:32;20.40;97.50
52565;DHT22;38460;53.106;7.004;2023-07-20T13:17:58;20.10;98.30
52565;DHT22;38460;53.106;7.004;2023-07-20T13:20:25;19.90;99.40
52565;DHT22;38460;53.106;7.004;2023-07-20T13:22:51;19.70;99.90
52565;DHT22;38460;53.106;7.004;2023-07-20T13:25:17;19.40;99.90
52565;DHT22;38460;53.106;7.004;2023-07-20T13:27:44;19.30;99.90
52565;DHT22;38460;53.106;7.004;2023-07-20T13:30:10;19.30;99.90
52565;DHT22;38460;53.106;7.004;2023-07-20T13:32:42;19.40;99.90
52565;DHT22;38460;53.106;7.004;2023-07-20T13:35:09;19.60;99.90
52565;DHT22;38460;53.106;7.004;2023-07-20T13:37:35;19.90;99.90
52565;DHT22;38460;53.106;7.004;2023-07-20T13:40:01;20.00;99.90
52565;DHT22;38460;53.106;7.004;2023-07-20T13:42:27;20.20;99.90
52565;DHT22;38460;53.106;7.004;2023-07-20T13:44:52;20.20;99.90
52565;DHT22;38460;53.106;7.004;2023-07-20T13:47:18;20.20;99.90
52565;DHT22;38460;53.106;7.004;2023-07-20T13:49:44;20.30;99.90
52565;DHT22;38460;53.106;7.004;2023-07-20T13:52:09;20.50;99.90
52565;DHT22;38460;53.106;7.004;2023-07-20T13:54:35;20.70;99.90
52565;DHT22;38460;53.106;7.004;2023-07-20T13:57:01;20.80;99.90
52565;DHT22;38460;53.106;7.004;2023-07-20T13:59:28;21.00;99.90
52565;DHT22;38460;53.106;7.004;2023-07-20T14:01:53;21.10;99.90
52565;DHT22;38460;53.106;7.004;2023-07-20T14:04:19;21.30;99.90
52565;DHT22;38460;53.106;7.004;2023-07-20T14:06:45;21.50;99.90
52565;DHT22;38460;53.106;7.004;2023-07-20T14:09:10;21.50;99.90
52565;DHT22;38460;53.106;7.004;2023-07-20T14:11:36;21.20;99.90
52565;DHT22;38460;53.106;7.004;2023-07-20T14:14:02;20.80;99.90
52565;DHT22;38460;53.106;7.004;2023-07-20T14:16:28;20.50;99.90
52565;DHT22;38460;53.106;7.004;2023-07-20T14:18:53;20.30;99.90
52565;DHT22;38460;53.106;7.004;2023-07-20T14:21:20;20.10;99.90
52565;DHT22;38460;53.106;7.004;2023-07-20T14:23:49;20.00;99.90
52565;DHT22;38460;53.106;7.004;2023-07-20T14:26:16;19.80;99.90
52565;DHT22;38460;53.106;7.004;2023-07-20T14:28:42;19.70;99.90
52565;DHT22;38460;53.106;7.004;2023-07-20T14:31:08;19.70;99.90
52565;DHT22;38460;53.106;7.004;2023-07-20T14:33:33;19.60;99.90
52565;DHT22;38460;53.106;7.004;2023-07-20T14:36:00;19.70;99.90
52565;DHT22;38460;53.106;7.004;2023-07-20T14:38:28;19.90;99.90
52565;DHT22;38460;53.106;7.004;2023-07-20T14:40:54;20.30;99.90
52565;DHT22;38460;53.106;7.004;2023-07-20T14:43:20;20.50;99.90
52565;DHT22;38460;53.106;7.004;2023-07-20T14:45:46;20.60;99.90
52565;DHT22;38460;53.106;7.004;2023-07-20T14:48:12;20.70;99.90
52565;DHT22;38460;53.106;7.004;2023-07-20T14:50:38;20.70;99.90
52565;DHT22;38460;53.106;7.004;2023-07-20T14:53:03;21.00;99.90
52565;DHT22;38460;53.106;7.004;2023-07-20T14:55:29;21.30;99.90
52565;DHT22;38460;53.106;7.004;2023-07-20T14:57:55;21.50;99.90
52565;DHT22;38460;53.106;7.004;2023-07-20T15:00:20;21.70;99.90
52565;DHT22;38460;53.106;7.004;2023-07-20T15:02:46;21.60;99.90
52565;DHT22;38460;53.106;7.004;2023-07-20T15:05:14;21.50;99.70
52565;DHT22;38460;53.106;7.004;2023-07-20T15:07:45;21.40;99.50
52565;DHT22;38460;53.106;7.004;2023-07-20T15:10:11;21.30;98.70
52565;DHT22;38460;53.106;7.004;2023-07-20T15:12:37;21.20;99.20
52565;DHT22;38460;53.106;7.004;2023-07-20T15:15:03;21.10;99.50
52565;DHT22;38460;53.106;7.004;2023-07-20T15:17:30;21.00;99.60
52565;DHT22;38460;53.106;7.004;2023-07-20T15:19:56;20.80;99.50
52565;DHT22;38460;53.106;7.004;2023-07-20T15:22:22;20.70;99.90
52565;DHT22;38460;53.106;7.004;2023-07-20T15:24:48;20.60;99.80
52565;DHT22;38460;53.106;7.004;2023-07-20T15:27:13;20.50;99.40
52565;DHT22;38460;53.106;7.004;2023-07-20T15:29:39;20.50;99.30
52565;DHT22;38460;53.106;7.004;2023-07-20T15:32:06;20.40;99.60
52565;DHT22;38460;53.106;7.004;2023-07-20T15:34:32;20.40;99.80
52565;DHT22;38460;53.106;7.004;2023-07-20T15:36:57;20.60;99.90
52565;DHT22;38460;53.106;7.004;2023-07-20T15:39:23;20.80;99.90
52565;DHT22;38460;53.106;7.004;2023-07-20T15:41:50;20.90;99.90
52565;DHT22;38460;53.106;7.004;2023-07-20T15:44:16;20.80;99.50